sensor_id;sensor_type;location;lat;lon;timestamp;pressure;altitude;pressure_sealevel;temperature;humidity
61682;BME280;47577;43.610;25.010;2023-04-23T00:01:58;100508.31;;;9.70;84.05
61682;BME280;47577;43.610;25.010;2023-04-23T00:04:24;100501.53;;;9.59;83.07
61682;BME280;47577;43.610;25.010;2023-04-23T00:06:51;100508.72;;;9.55;82.62
61682;BME280;47577;43.610;25.010;2023-04-23T00:09:17;100514.16;;;9.50;82.27
61682;BME280;47577;43.610;25.010;2023-04-23T00:11:44;100510.97;;;9.38;82.87
61682;BME280;47577;43.610;25.010;2023-04-23T00:14:10;100516.28;;;9.38;82.25
61682;BME280;47577;43.610;25.010;2023-04-23T00:16:37;100505.91;;;9.30;81.89
61682;BME280;47577;43.610;25.010;2023-04-23T00:19:04;100508.75;;;9.22;82.52
61682;BME280;47577;43.610;25.010;2023-04-23T00:21:30;100506.13;;;9.21;83.89
61682;BME280;47577;43.610;25.010;2023-04-23T00:23:56;100518.38;;;9.25;82.67
61682;BME280;47577;43.610;25.010;2023-04-23T00:26:22;100518.50;;;9.22;81.75
61682;BME280;47577;43.610;25.010;2023-04-23T00:28:47;100518.66;;;9.15;82.30
61682;BME280;47577;43.610;25.010;2023-04-23T00:31:13;100513.09;;;9.25;81.89
61682;BME280;47577;43.610;25.010;2023-04-23T00:33:39;100504.88;;;9.01;82.91
61682;BME280;47577;43.610;25.010;2023-04-23T00:36:05;100506.75;;;8.98;82.80
61682;BME280;47577;43.610;25.010;2023-04-23T00:38:31;100502.22;;;9.01;82.65
61682;BME280;47577;43.610;25.010;2023-04-23T00:40:56;100502.47;;;8.90;82.47
61682;BME280;47577;43.610;25.010;2023-04-23T00:43:22;100507.91;;;8.86;82.20
61682;BME280;47577;43.610;25.010;2023-04-23T00:45:48;100506.19;;;8.85;81.96
61682;BME280;47577;43.610;25.010;2023-04-23T00:48:15;100512.59;;;8.74;82.23
61682;BME280;47577;43.610;25.010;2023-04-23T00:50:45;100511.78;;;8.72;83.00
61682;BME280;47577;43.610;25.010;2023-04-23T00:53:10;100507.72;;;8.57;83.37
61682;BME280;47577;43.610;25.010;2023-04-23T00:55:36;100506.28;;;8.44;83.42
61682;BME280;47577;43.610;25.010;2023-04-23T00:58:02;100502.72;;;8.42;83.82
61682;BME280;47577;43.610;25.010;2023-04-23T01:00:28;100494.03;;;8.37;85.42
61682;BME280;47577;43.610;25.010;2023-04-23T01:02:54;100483.38;;;8.38;84.76
61682;BME280;47577;43.610;25.010;2023-04-23T01:05:22;100499.28;;;8.38;83.73
61682;BME280;47577;43.610;25.010;2023-04-23T01:07:48;100493.19;;;8.35;83.95
61682;BME280;47577;43.610;25.010;2023-04-23T01:10:14;100485.34;;;8.30;83.91
61682;BME280;47577;43.610;25.010;2023-04-23T01:12:39;100497.75;;;8.28;83.69
61682;BME280;47577;43.610;25.010;2023-04-23T01:15:06;100486.25;;;8.29;84.32
61682;BME280;47577;43.610;25.010;2023-04-23T01:17:32;100500.44;;;8.27;82.93
61682;BME280;47577;43.610;25.010;2023-04-23T01:19:58;100501.34;;;8.26;82.87
61682;BME280;47577;43.610;25.010;2023-04-23T01:22:24;100500.50;;;8.23;81.96
61682;BME280;47577;43.610;25.010;2023-04-23T01:24:50;100496.22;;;8.18;82.34
61682;BME280;47577;43.610;25.010;2023-04-23T01:27:16;100500.47;;;8.25;83.82
61682;BME280;47577;43.610;25.010;2023-04-23T01:29:44;100503.25;;;8.19;82.56
61682;BME280;47577;43.610;25.010;2023-04-23T01:32:10;100496.88;;;7.87;84.49
61682;BME280;47577;43.610;25.010;2023-04-23T01:34:37;100504.66;;;7.95;84.77
61682;BME280;47577;43.610;25.010;2023-04-23T01:37:03;100495.16;;;7.86;85.51
61682;BME280;47577;43.610;25.010;2023-04-23T01:39:30;100496.38;;;7.69;84.95
61682;BME280;47577;43.610;25.010;2023-04-23T01:41:55;100499.03;;;7.69;85.16
61682;BME280;47577;43.610;25.010;2023-04-23T01:44:22;100502.41;;;7.76;85.21
61682;BME280;47577;43.610;25.010;2023-04-23T01:46:47;100497.13;;;7.76;84.41
61682;BME280;47577;43.610;25.010;2023-04-23T01:49:13;100507.81;;;7.70;83.51
61682;BME280;47577;43.610;25.010;2023-04-23T01:51:39;100505.28;;;7.64;84.61
61682;BME280;47577;43.610;25.010;2023-04-23T01:54:05;100503.50;;;7.64;84.09
61682;BME280;47577;43.610;25.010;2023-04-23T01:56:30;100515.16;;;7.56;84.08
61682;BME280;47577;43.610;25.010;2023-04-23T01:58:58;100508.94;;;7.58;83.94
61682;BME280;47577;43.610;25.010;2023-04-23T02:01:23;100505.50;;;7.53;85.10
61682;BME280;47577;43.610;25.010;2023-04-23T02:03:49;100502.94;;;7.50;84.83
61682;BME280;47577;43.610;25.010;2023-04-23T02:06:15;100512.69;;;7.46;83.85
61682;BME280;47577;43.610;25.010;2023-04-23T02:08:41;100512.06;;;7.32;83.64
61682;BME280;47577;43.610;25.010;2023-04-23T02:11:07;100511.34;;;7.24;84.66
61682;BME280;47577;43.610;25.010;2023-04-23T02:13:33;100514.78;;;7.30;84.10
61682;BME280;47577;43.610;25.010;2023-04-23T02:15:59;100512.06;;;7.32;82.64
61682;BME280;47577;43.610;25.010;2023-04-23T02:18:25;100502.56;;;7.22;82.40
61682;BME280;47577;43.610;25.010;2023-04-23T02:20:51;100506.03;;;7.25;83.31
61682;BME280;47577;43.610;25.010;2023-04-23T02:23:16;100506.03;;;7.25;84.53
61682;BME280;47577;43.610;25.010;2023-04-23T02:25:42;100493.81;;;7.20;85.28
61682;BME280;47577;43.610;25.010;2023-04-23T02:28:08;100500.13;;;7.11;86.00
61682;BME280;47577;43.610;25.010;2023-04-23T02:30:38;100504.41;;;7.18;85.39
61682;BME280;47577;43.610;25.010;2023-04-23T02:33:09;100503.44;;;7.22;84.23
61682;BME280;47577;43.610;25.010;2023-04-23T02:35:35;100490.38;;;7.14;82.85
61682;BME280;47577;43.610;25.010;2023-04-23T02:38:00;100518.25;;;7.32;82.52
61682;BME280;47577;43.610;25.010;2023-04-23T02:40:26;100522.25;;;7.07;82.59
61682;BME280;47577;43.610;25.010;2023-04-23T02:42:52;100519.75;;;6.96;85.34
61682;BME280;47577;43.610;25.010;2023-04-23T02:45:17;100527.91;;;6.84;86.86
61682;BME280;47577;43.610;25.010;2023-04-23T02:47:43;100515.56;;;6.84;85.87
61682;BME280;47577;43.610;25.010;2023-04-23T02:50:09;100525.03;;;6.98;85.82
61682;BME280;47577;43.610;25.010;2023-04-23T02:52:34;100523.22;;;7.00;85.72
61682;BME280;47577;43.610;25.010;2023-04-23T02:55:00;100527.63;;;7.01;85.47
61682;BME280;47577;43.610;25.010;2023-04-23T02:57:27;100534.81;;;6.92;82.67
61682;BME280;47577;43.610;25.010;2023-04-23T02:59:53;100537.53;;;6.88;83.92
61682;BME280;47577;43.610;25.010;2023-04-23T03:02:18;100521.78;;;6.80;84.25
61682;BME280;47577;43.610;25.010;2023-04-23T03:04:46;100528.16;;;6.68;85.85
61682;BME280;47577;43.610;25.010;2023-04-23T03:07:11;100521.22;;;6.61;85.93
61682;BME280;47577;43.610;25.010;2023-04-23T03:09:38;100530.94;;;6.59;85.50
61682;BME280;47577;43.610;25.010;2023-04-23T03:12:04;100529.19;;;6.59;84.93
61682;BME280;47577;43.610;25.010;2023-04-23T03:14:29;100532.72;;;6.57;85.01
61682;BME280;47577;43.610;25.010;2023-04-23T03:16:55;100519.44;;;6.63;86.56
61682;BME280;47577;43.610;25.010;2023-04-23T03:19:21;100531.63;;;6.70;86.94
61682;BME280;47577;43.610;25.010;2023-04-23T03:21:46;100521.22;;;6.61;86.20
61682;BME280;47577;43.610;25.010;2023-04-23T03:24:12;100524.75;;;6.60;86.22
61682;BME280;47577;43.610;25.010;2023-04-23T03:26:39;100524.88;;;6.52;84.56
61682;BME280;47577;43.610;25.010;2023-04-23T03:29:05;100513.44;;;6.52;85.36
61682;BME280;47577;43.610;25.010;2023-04-23T03:31:31;100530.03;;;6.62;86.15
61682;BME280;47577;43.610;25.010;2023-04-23T03:33:57;100529.97;;;6.66;85.46
61682;BME280;47577;43.610;25.010;2023-04-23T03:36:22;100532.47;;;6.75;84.83
61682;BME280;47577;43.610;25.010;2023-04-23T03:38:48;100531.50;;;6.80;85.98
61682;BME280;47577;43.610;25.010;2023-04-23T03:41:14;100528.75;;;6.87;87.48
61682;BME280;47577;43.610;25.010;2023-04-23T03:43:39;100529.50;;;6.94;86.49
61682;BME280;47577;43.610;25.010;2023-04-23T03:46:05;100535.53;;;7.02;86.39
61682;BME280;47577;43.610;25.010;2023-04-23T03:48:31;100524.34;;;6.86;86.42
61682;BME280;47577;43.610;25.010;2023-04-23T03:50:57;100527.94;;;6.82;86.52
61682;BME280;47577;43.610;25.010;2023-04-23T03:53:22;100534.84;;;6.91;86.45
61682;BME280;47577;43.610;25.010;2023-04-23T03:55:48;100529.50;;;6.94;86.56
61682;BME280;47577;43.610;25.010;2023-04-23T03:58:14;100538.03;;;7.11;85.73
61682;BME280;47577;43.610;25.010;2023-04-23T04:00:39;100539.81;;;7.09;85.34
61682;BME280;47577;43.610;25.010;2023-04-23T04:03:05;100550.13;;;7.25;86.03
61682;BME280;47577;43.610;25.010;2023-04-23T04:05:32;100561.50;;;7.30;86.31
61682;BME280;47577;43.610;25.010;2023-04-23T04:07:58;100548.19;;;7.35;85.64
61682;BME280;47577;43.610;25.010;2023-04-23T04:10:23;100542.97;;;7.30;86.38
61682;BME280;47577;43.610;25.010;2023-04-23T04:12:49;100561.97;;;7.02;89.79
61682;BME280;47577;43.610;25.010;2023-04-23T04:15:15;100550.19;;;7.20;91.82
61682;BME280;47577;43.610;25.010;2023-04-23T04:17:41;100551.41;;;7.52;88.67
61682;BME280;47577;43.610;25.010;2023-04-23T04:20:10;100552.72;;;7.76;88.41
61682;BME280;47577;43.610;25.010;2023-04-23T04:22:36;100555.69;;;8.03;87.96
61682;BME280;47577;43.610;25.010;2023-04-23T04:25:02;100547.56;;;8.12;87.67
61682;BME280;47577;43.610;25.010;2023-04-23T04:27:30;100550.75;;;8.28;86.96
61682;BME280;47577;43.610;25.010;2023-04-23T04:29:58;100549.53;;;8.45;85.71
61682;BME280;47577;43.610;25.010;2023-04-23T04:32:25;100562.25;;;8.68;87.46
61682;BME280;47577;43.610;25.010;2023-04-23T04:34:51;100560.84;;;8.89;85.57
61682;BME280;47577;43.610;25.010;2023-04-23T04:37:17;100562.53;;;8.93;86.62
61682;BME280;47577;43.610;25.010;2023-04-23T04:39:42;100558.66;;;9.06;84.68
61682;BME280;47577;43.610;25.010;2023-04-23T04:42:08;100551.91;;;9.29;85.28
61682;BME280;47577;43.610;25.010;2023-04-23T04:44:35;100546.25;;;9.43;82.91
61682;BME280;47577;43.610;25.010;2023-04-23T04:47:01;100552.75;;;9.64;85.01
61682;BME280;47577;43.610;25.010;2023-04-23T04:49:27;100544.19;;;9.85;85.40
61682;BME280;47577;43.610;25.010;2023-04-23T04:51:52;100544.75;;;9.97;83.35
61682;BME280;47577;43.610;25.010;2023-04-23T04:54:19;100546.94;;;10.12;82.57
61682;BME280;47577;43.610;25.010;2023-04-23T04:56:46;100550.63;;;10.38;81.78
61682;BME280;47577;43.610;25.010;2023-04-23T04:59:11;100542.28;;;10.50;81.67
61682;BME280;47577;43.610;25.010;2023-04-23T05:01:37;100551.00;;;10.55;82.03
61682;BME280;47577;43.610;25.010;2023-04-23T05:04:03;100550.66;;;10.93;80.02
61682;BME280;47577;43.610;25.010;2023-04-23T05:06:28;100561.28;;;11.21;78.89
61682;BME280;47577;43.610;25.010;2023-04-23T05:08:55;100542.69;;;11.45;76.38
61682;BME280;47577;43.610;25.010;2023-04-23T05:11:21;100555.22;;;11.68;76.82
61682;BME280;47577;43.610;25.010;2023-04-23T05:13:47;100549.94;;;11.66;75.53
61682;BME280;47577;43.610;25.010;2023-04-23T05:16:13;100553.63;;;11.87;73.94
61682;BME280;47577;43.610;25.010;2023-04-23T05:18:40;100553.28;;;11.97;74.67
61682;BME280;47577;43.610;25.010;2023-04-23T05:21:06;100556.84;;;11.97;75.59
61682;BME280;47577;43.610;25.010;2023-04-23T05:23:32;100550.84;;;11.92;73.35
61682;BME280;47577;43.610;25.010;2023-04-23T05:25:58;100559.69;;;12.16;73.49
61682;BME280;47577;43.610;25.010;2023-04-23T05:28:24;100556.09;;;12.41;74.36
61682;BME280;47577;43.610;25.010;2023-04-23T05:30:50;100566.09;;;12.58;70.20
61682;BME280;47577;43.610;25.010;2023-04-23T05:33:16;100555.84;;;12.69;72.47
61682;BME280;47577;43.610;25.010;2023-04-23T05:35:42;100562.81;;;12.73;71.12
61682;BME280;47577;43.610;25.010;2023-04-23T05:38:07;100558.91;;;12.82;71.67
61682;BME280;47577;43.610;25.010;2023-04-23T05:40:33;100558.47;;;12.93;71.22
61682;BME280;47577;43.610;25.010;2023-04-23T05:42:59;100570.63;;;13.00;72.09
61682;BME280;47577;43.610;25.010;2023-04-23T05:45:24;100569.88;;;13.19;74.04
61682;BME280;47577;43.610;25.010;2023-04-23T05:47:50;100571.91;;;13.34;75.46
61682;BME280;47577;43.610;25.010;2023-04-23T05:50:17;100572.00;;;13.53;77.17
61682;BME280;47577;43.610;25.010;2023-04-23T05:52:42;100567.97;;;13.63;75.27
61682;BME280;47577;43.610;25.010;2023-04-23T05:55:08;100572.13;;;13.70;74.50
61682;BME280;47577;43.610;25.010;2023-04-23T05:57:36;100570.25;;;13.73;73.11
61682;BME280;47577;43.610;25.010;2023-04-23T06:00:02;100576.13;;;13.60;74.87
61682;BME280;47577;43.610;25.010;2023-04-23T06:02:28;100571.81;;;13.58;74.62
61682;BME280;47577;43.610;25.010;2023-04-23T06:04:54;100573.13;;;13.68;75.44
61682;BME280;47577;43.610;25.010;2023-04-23T06:07:19;100574.66;;;13.74;76.36
61682;BME280;47577;43.610;25.010;2023-04-23T06:09:45;100583.88;;;13.87;75.36
61682;BME280;47577;43.610;25.010;2023-04-23T06:12:11;100590.59;;;13.96;76.28
61682;BME280;47577;43.610;25.010;2023-04-23T06:14:36;100586.63;;;13.85;73.81
61682;BME280;47577;43.610;25.010;2023-04-23T06:17:02;100587.59;;;13.83;76.78
61682;BME280;47577;43.610;25.010;2023-04-23T06:19:27;100587.47;;;13.86;76.67
61682;BME280;47577;43.610;25.010;2023-04-23T06:21:53;100583.81;;;13.88;74.28
61682;BME280;47577;43.610;25.010;2023-04-23T06:24:19;100576.66;;;13.89;75.72
61682;BME280;47577;43.610;25.010;2023-04-23T06:26:45;100583.31;;;13.99;77.11
61682;BME280;47577;43.610;25.010;2023-04-23T06:29:10;100589.34;;;14.04;75.19
61682;BME280;47577;43.610;25.010;2023-04-23T06:31:36;100566.13;;;14.05;75.72
61682;BME280;47577;43.610;25.010;2023-04-23T06:34:02;100592.00;;;14.23;76.00
61682;BME280;47577;43.610;25.010;2023-04-23T06:36:28;100583.13;;;14.23;74.54
61682;BME280;47577;43.610;25.010;2023-04-23T06:38:53;100595.13;;;14.33;74.55
61682;BME280;47577;43.610;25.010;2023-04-23T06:41:19;100578.22;;;14.33;73.50
61682;BME280;47577;43.610;25.010;2023-04-23T06:43:45;100588.28;;;14.47;73.21
61682;BME280;47577;43.610;25.010;2023-04-23T06:46:13;100594.28;;;14.52;72.47
61682;BME280;47577;43.610;25.010;2023-04-23T06:48:39;100598.19;;;14.44;72.76
61682;BME280;47577;43.610;25.010;2023-04-23T06:51:05;100588.88;;;14.53;72.54
61682;BME280;47577;43.610;25.010;2023-04-23T06:53:31;100583.97;;;14.63;73.47
61682;BME280;47577;43.610;25.010;2023-04-23T06:55:56;100597.03;;;14.88;73.48
61682;BME280;47577;43.610;25.010;2023-04-23T06:58:22;100603.53;;;15.02;70.79
61682;BME280;47577;43.610;25.010;2023-04-23T07:00:52;100589.53;;;15.14;70.18
61682;BME280;47577;43.610;25.010;2023-04-23T07:03:18;100602.53;;;15.22;68.81
61682;BME280;47577;43.610;25.010;2023-04-23T07:05:44;100602.47;;;15.23;69.96
61682;BME280;47577;43.610;25.010;2023-04-23T07:08:09;100592.63;;;15.24;68.93
61682;BME280;47577;43.610;25.010;2023-04-23T07:10:35;100593.25;;;15.29;68.50
61682;BME280;47577;43.610;25.010;2023-04-23T07:13:00;100591.84;;;15.39;68.76
61682;BME280;47577;43.610;25.010;2023-04-23T07:15:26;100584.84;;;15.54;67.61
61682;BME280;47577;43.610;25.010;2023-04-23T07:17:52;100597.22;;;15.57;66.73
61682;BME280;47577;43.610;25.010;2023-04-23T07:20:17;100584.75;;;15.73;67.69
61682;BME280;47577;43.610;25.010;2023-04-23T07:22:45;100584.47;;;15.79;65.97
61682;BME280;47577;43.610;25.010;2023-04-23T07:25:11;100583.03;;;15.89;65.91
61682;BME280;47577;43.610;25.010;2023-04-23T07:27:37;100581.41;;;16.03;67.00
61682;BME280;47577;43.610;25.010;2023-04-23T07:30:03;100579.97;;;16.13;66.05
61682;BME280;47577;43.610;25.010;2023-04-23T07:32:29;100575.47;;;16.14;63.92
61682;BME280;47577;43.610;25.010;2023-04-23T07:34:55;100573.84;;;16.27;65.91
61682;BME280;47577;43.610;25.010;2023-04-23T07:37:21;100578.03;;;16.33;63.95
61682;BME280;47577;43.610;25.010;2023-04-23T07:39:47;100567.38;;;16.47;64.61
61682;BME280;47577;43.610;25.010;2023-04-23T07:42:13;100568.88;;;16.53;62.95
61682;BME280;47577;43.610;25.010;2023-04-23T07:44:39;100578.63;;;16.70;63.35
61682;BME280;47577;43.610;25.010;2023-04-23T07:47:04;100579.09;;;16.94;60.53
61682;BME280;47577;43.610;25.010;2023-04-23T07:49:30;100585.84;;;17.01;58.17
61682;BME280;47577;43.610;25.010;2023-04-23T07:51:56;100579.44;;;16.72;58.86
61682;BME280;47577;43.610;25.010;2023-04-23T07:54:21;100577.00;;;16.99;60.95
61682;BME280;47577;43.610;25.010;2023-04-23T07:56:47;100574.84;;;17.06;60.05
61682;BME280;47577;43.610;25.010;2023-04-23T07:59:12;100579.75;;;17.13;60.92
61682;BME280;47577;43.610;25.010;2023-04-23T08:01:38;100579.56;;;17.16;60.30
61682;BME280;47577;43.610;25.010;2023-04-23T08:04:04;100571.13;;;17.39;60.08
61682;BME280;47577;43.610;25.010;2023-04-23T08:06:29;100570.41;;;17.65;57.61
61682;BME280;47577;43.610;25.010;2023-04-23T08:08:57;100560.66;;;17.79;54.44
61682;BME280;47577;43.610;25.010;2023-04-23T08:11:24;100563.50;;;17.92;55.16
61682;BME280;47577;43.610;25.010;2023-04-23T08:13:50;100566.38;;;17.88;54.33
61682;BME280;47577;43.610;25.010;2023-04-23T08:16:15;100565.22;;;18.07;54.76
61682;BME280;47577;43.610;25.010;2023-04-23T08:18:41;100563.00;;;18.14;53.97
61682;BME280;47577;43.610;25.010;2023-04-23T08:21:06;100555.81;;;18.00;55.28
61682;BME280;47577;43.610;25.010;2023-04-23T08:23:32;100563.38;;;18.22;51.61
61682;BME280;47577;43.610;25.010;2023-04-23T08:25:58;100567.69;;;18.39;51.04
61682;BME280;47577;43.610;25.010;2023-04-23T08:28:23;100567.78;;;18.52;48.69
61682;BME280;47577;43.610;25.010;2023-04-23T08:30:49;100565.22;;;18.77;49.90
61682;BME280;47577;43.610;25.010;2023-04-23T08:33:15;100566.38;;;18.88;44.05
61682;BME280;47577;43.610;25.010;2023-04-23T08:35:40;100562.28;;;18.68;41.45
61682;BME280;47577;43.610;25.010;2023-04-23T08:38:06;100555.28;;;18.92;44.87
61682;BME280;47577;43.610;25.010;2023-04-23T08:40:32;100561.53;;;19.20;40.87
61682;BME280;47577;43.610;25.010;2023-04-23T08:43:05;100557.88;;;19.34;39.82
61682;BME280;47577;43.610;25.010;2023-04-23T08:45:35;100559.66;;;19.48;39.74
61682;BME280;47577;43.610;25.010;2023-04-23T08:48:06;100561.59;;;19.46;37.16
61682;BME280;47577;43.610;25.010;2023-04-23T08:50:32;100545.22;;;19.62;37.09
61682;BME280;47577;43.610;25.010;2023-04-23T08:52:58;100552.53;;;19.72;38.06
61682;BME280;47577;43.610;25.010;2023-04-23T08:55:24;100547.28;;;19.84;38.26
61682;BME280;47577;43.610;25.010;2023-04-23T08:57:50;100543.31;;;19.77;37.26
61682;BME280;47577;43.610;25.010;2023-04-23T09:00:19;100549.66;;;19.76;37.13
61682;BME280;47577;43.610;25.010;2023-04-23T09:02:48;100537.50;;;19.96;35.40
61682;BME280;47577;43.610;25.010;2023-04-23T09:05:14;100544.59;;;20.09;35.12
61682;BME280;47577;43.610;25.010;2023-04-23T09:07:41;100531.53;;;19.90;34.53
61682;BME280;47577;43.610;25.010;2023-04-23T09:10:08;100536.81;;;20.05;37.79
61682;BME280;47577;43.610;25.010;2023-04-23T09:12:35;100538.75;;;20.16;38.01
61682;BME280;47577;43.610;25.010;2023-04-23T09:15:01;100534.31;;;20.27;37.19
61682;BME280;47577;43.610;25.010;2023-04-23T09:17:28;100542.81;;;20.34;34.29
61682;BME280;47577;43.610;25.010;2023-04-23T09:19:55;100531.97;;;20.47;35.15
61682;BME280;47577;43.610;25.010;2023-04-23T09:22:46;100530.97;;;20.61;33.76
61682;BME280;47577;43.610;25.010;2023-04-23T09:25:17;100530.63;;;20.78;36.68
61682;BME280;47577;43.610;25.010;2023-04-23T09:27:45;100529.81;;;20.89;34.21
61682;BME280;47577;43.610;25.010;2023-04-23T09:30:11;100536.38;;;20.98;35.06
61682;BME280;47577;43.610;25.010;2023-04-23T09:32:40;100539.34;;;21.06;34.62
61682;BME280;47577;43.610;25.010;2023-04-23T09:35:08;100526.25;;;20.89;30.86
61682;BME280;47577;43.610;25.010;2023-04-23T09:37:34;100525.28;;;20.66;31.61
61682;BME280;47577;43.610;25.010;2023-04-23T09:40:02;100515.88;;;20.45;31.55
61682;BME280;47577;43.610;25.010;2023-04-23T09:42:29;100514.78;;;20.61;35.92
61682;BME280;47577;43.610;25.010;2023-04-23T09:45:13;100500.63;;;20.70;32.49
61682;BME280;47577;43.610;25.010;2023-04-23T09:47:47;100507.84;;;20.94;34.26
61682;BME280;47577;43.610;25.010;2023-04-23T09:50:13;100514.44;;;21.14;31.43
61682;BME280;47577;43.610;25.010;2023-04-23T09:52:39;100511.94;;;20.99;31.91
61682;BME280;47577;43.610;25.010;2023-04-23T09:55:06;100520.00;;;21.24;33.65
61682;BME280;47577;43.610;25.010;2023-04-23T09:57:41;100494.69;;;21.25;32.00
61682;BME280;47577;43.610;25.010;2023-04-23T10:00:15;100496.91;;;21.31;35.38
61682;BME280;47577;43.610;25.010;2023-04-23T10:02:48;100500.56;;;21.54;32.77
61682;BME280;47577;43.610;25.010;2023-04-23T10:05:16;100499.97;;;21.62;32.17
61682;BME280;47577;43.610;25.010;2023-04-23T10:07:43;100494.81;;;21.70;32.10
61682;BME280;47577;43.610;25.010;2023-04-23T10:10:10;100490.84;;;21.51;30.38
61682;BME280;47577;43.610;25.010;2023-04-23T10:12:35;100479.44;;;21.59;32.61
61682;BME280;47577;43.610;25.010;2023-04-23T10:15:03;100489.78;;;21.77;32.05
61682;BME280;47577;43.610;25.010;2023-04-23T10:17:29;100484.47;;;21.86;33.71
61682;BME280;47577;43.610;25.010;2023-04-23T10:19:57;100494.69;;;22.17;32.96
61682;BME280;47577;43.610;25.010;2023-04-23T10:22:26;100488.56;;;22.15;31.18
61682;BME280;47577;43.610;25.010;2023-04-23T10:24:52;100486.69;;;22.15;31.19
61682;BME280;47577;43.610;25.010;2023-04-23T10:27:21;100478.59;;;21.92;30.83
61682;BME280;47577;43.610;25.010;2023-04-23T10:29:48;100479.06;;;22.20;31.88
61682;BME280;47577;43.610;25.010;2023-04-23T10:32:16;100467.00;;;22.13;31.99
61682;BME280;47577;43.610;25.010;2023-04-23T10:34:42;100480.19;;;22.40;31.72
61682;BME280;47577;43.610;25.010;2023-04-23T10:37:09;100475.47;;;22.42;32.26
61682;BME280;47577;43.610;25.010;2023-04-23T10:39:36;100470.16;;;22.52;30.05
61682;BME280;47577;43.610;25.010;2023-04-23T10:42:03;100471.25;;;22.50;30.49
61682;BME280;47577;43.610;25.010;2023-04-23T10:44:36;100464.03;;;22.50;29.92
61682;BME280;47577;43.610;25.010;2023-04-23T10:47:03;100453.88;;;22.63;32.84
61682;BME280;47577;43.610;25.010;2023-04-23T10:49:30;100456.94;;;22.70;29.45
61682;BME280;47577;43.610;25.010;2023-04-23T10:52:17;100464.06;;;22.71;29.21
61682;BME280;47577;43.610;25.010;2023-04-23T10:54:55;100450.03;;;22.77;28.36
61682;BME280;47577;43.610;25.010;2023-04-23T10:57:21;100442.34;;;22.50;29.03
61682;BME280;47577;43.610;25.010;2023-04-23T10:59:52;100452.78;;;22.66;29.45
61682;BME280;47577;43.610;25.010;2023-04-23T11:02:18;100435.97;;;22.72;30.84
61682;BME280;47577;43.610;25.010;2023-04-23T11:04:57;100441.69;;;22.58;31.12
61682;BME280;47577;43.610;25.010;2023-04-23T11:07:31;100437.81;;;22.72;30.56
61682;BME280;47577;43.610;25.010;2023-04-23T11:10:11;100430.06;;;22.99;32.30
61682;BME280;47577;43.610;25.010;2023-04-23T11:12:38;100425.91;;;22.95;30.84
61682;BME280;47577;43.610;25.010;2023-04-23T11:15:15;100429.34;;;22.97;28.28
61682;BME280;47577;43.610;25.010;2023-04-23T11:20:17;100435.09;;;22.28;29.88
61682;BME280;47577;43.610;25.010;2023-04-23T11:22:47;100440.34;;;21.75;30.65
61682;BME280;47577;43.610;25.010;2023-04-23T11:27:42;100427.47;;;21.43;31.39
61682;BME280;47577;43.610;25.010;2023-04-23T11:30:16;100423.84;;;21.55;32.21
61682;BME280;47577;43.610;25.010;2023-04-23T11:32:47;100419.78;;;21.83;32.96
61682;BME280;47577;43.610;25.010;2023-04-23T11:35:19;100426.16;;;22.16;31.33
61682;BME280;47577;43.610;25.010;2023-04-23T11:37:46;100423.91;;;22.44;31.86
61682;BME280;47577;43.610;25.010;2023-04-23T11:40:16;100425.00;;;22.74;29.50
61682;BME280;47577;43.610;25.010;2023-04-23T11:42:47;100417.06;;;22.82;30.16
61682;BME280;47577;43.610;25.010;2023-04-23T11:45:33;100410.38;;;22.97;28.53
61682;BME280;47577;43.610;25.010;2023-04-23T11:47:59;100405.13;;;23.06;29.88
61682;BME280;47577;43.610;25.010;2023-04-23T11:50:27;100410.31;;;23.30;28.68
61682;BME280;47577;43.610;25.010;2023-04-23T11:52:54;100403.41;;;23.47;30.21
61682;BME280;47577;43.610;25.010;2023-04-23T11:55:21;100406.59;;;23.52;29.50
61682;BME280;47577;43.610;25.010;2023-04-23T11:57:50;100404.22;;;23.38;30.35
61682;BME280;47577;43.610;25.010;2023-04-23T12:00:19;100392.72;;;23.24;27.78
61682;BME280;47577;43.610;25.010;2023-04-23T12:02:57;100390.41;;;23.41;30.21
61682;BME280;47577;43.610;25.010;2023-04-23T12:05:40;100392.53;;;23.47;31.92
61682;BME280;47577;43.610;25.010;2023-04-23T12:08:14;100386.50;;;23.33;29.88
61682;BME280;47577;43.610;25.010;2023-04-23T12:10:52;100382.09;;;23.42;30.17
61682;BME280;47577;43.610;25.010;2023-04-23T12:13:23;100381.41;;;23.50;32.02
61682;BME280;47577;43.610;25.010;2023-04-23T12:15:57;100381.06;;;23.64;30.70
61682;BME280;47577;43.610;25.010;2023-04-23T12:18:31;100373.19;;;24.02;30.22
61682;BME280;47577;43.610;25.010;2023-04-23T12:21:08;100374.22;;;24.11;29.31
61682;BME280;47577;43.610;25.010;2023-04-23T12:23:35;100364.06;;;24.03;30.53
61682;BME280;47577;43.610;25.010;2023-04-23T12:26:02;100368.19;;;23.97;30.80
61682;BME280;47577;43.610;25.010;2023-04-23T12:28:28;100369.81;;;23.38;31.47
61682;BME280;47577;43.610;25.010;2023-04-23T12:30:58;100355.22;;;23.29;31.42
61682;BME280;47577;43.610;25.010;2023-04-23T12:33:29;100345.13;;;23.41;30.93
61682;BME280;47577;43.610;25.010;2023-04-23T12:35:55;100351.22;;;23.64;32.76
61682;BME280;47577;43.610;25.010;2023-04-23T12:38:25;100352.81;;;23.77;28.89
61682;BME280;47577;43.610;25.010;2023-04-23T12:40:53;100342.53;;;23.70;30.05
61682;BME280;47577;43.610;25.010;2023-04-23T12:43:19;100348.13;;;23.79;31.66
61682;BME280;47577;43.610;25.010;2023-04-23T12:45:45;100339.50;;;23.64;30.72
61682;BME280;47577;43.610;25.010;2023-04-23T12:48:11;100335.53;;;23.78;31.25